createdAt,value
2022-09-01T00:00:13.384Z,100859.66
2022-09-01T00:02:40.189Z,100873.25
2022-09-01T00:05:07.817Z,100847.78
2022-09-01T00:07:35.466Z,100833.66
2022-09-01T00:10:05.971Z,100846.69
2022-09-01T00:12:32.594Z,100861.66
2022-09-01T00:14:59.385Z,100852.13
2022-09-01T00:17:26.579Z,100853.06
2022-09-01T00:19:53.727Z,100782.97
2022-09-01T00:22:20.538Z,100862.72
2022-09-01T00:24:47.205Z,100840.88
2022-09-01T00:27:13.899Z,100863.72
2022-09-01T00:29:43.420Z,100818.09
2022-09-01T00:32:11.673Z,100865.25
2022-09-01T00:34:38.763Z,100872.94
2022-09-01T00:37:08.488Z,100844.06
2022-09-01T00:39:35.225Z,100863.81
2022-09-01T00:42:02.257Z,100857.31
2022-09-01T00:44:31.856Z,100861.13
2022-09-01T00:46:59.824Z,100855.53
2022-09-01T00:49:31.406Z,100835.97
2022-09-01T00:52:06.845Z,100821.47
2022-09-01T00:54:37.607Z,100826.44
2022-09-01T00:57:06.048Z,100799.88
2022-09-01T00:59:33.060Z,100850.31
2022-09-01T01:01:59.815Z,100855.97
2022-09-01T01:04:26.490Z,100849.34
2022-09-01T01:07:03.126Z,100736.63
2022-09-01T01:09:36.148Z,100858.97
2022-09-01T01:12:05.392Z,100787.91
2022-09-01T01:14:36.994Z,100849.38
2022-09-01T01:17:04.148Z,100818.31
2022-09-01T01:20:01.135Z,100858.16
2022-09-01T01:23:02.733Z,100854.66
2022-09-01T01:25:34.503Z,100845.09
2022-09-01T01:28:18.732Z,100829.72
2022-09-01T01:30:52.517Z,100626.97
2022-09-01T01:33:25.875Z,100743.63
2022-09-01T01:35:53.705Z,100852.22
2022-09-01T01:38:23.169Z,100859.03
2022-09-01T01:40:51.899Z,100844.16
2022-09-01T01:43:21.925Z,100813.84
2022-09-01T01:45:52.478Z,100855.03
2022-09-01T01:48:23.033Z,100872.56
2022-09-01T01:50:53.210Z,100865.88
2022-09-01T01:53:19.988Z,100844.63
2022-09-01T01:55:50.908Z,100853.38
2022-09-01T01:58:22.719Z,100876.88
2022-09-01T02:00:51.388Z,100841.75
2022-09-01T02:03:21.897Z,100852.53
2022-09-01T02:05:50.262Z,100857.25
2022-09-01T02:08:22.756Z,100874.72
2022-09-01T02:10:52.063Z,100878.19
2022-09-01T02:13:20.974Z,100818.16
2022-09-01T02:15:53.852Z,100891.34
2022-09-01T02:18:34.316Z,100802.41
2022-09-01T02:21:02.161Z,100810.69
2022-09-01T02:23:30.100Z,100849.97
2022-09-01T02:26:16.231Z,100807.16
2022-09-01T02:28:54.221Z,100852.25
2022-09-01T02:31:23.140Z,100881.00
2022-09-01T02:33:49.990Z,100887.63
2022-09-01T02:36:19.539Z,100829.88
2022-09-01T02:38:53.341Z,100876.66
2022-09-01T02:41:23.104Z,100733.19
2022-09-01T02:43:50.455Z,100869.91
2022-09-01T02:46:17.404Z,100882.19
2022-09-01T02:48:46.231Z,100881.75
2022-09-01T02:51:18.615Z,100884.03
2022-09-01T02:53:49.853Z,100836.63
2022-09-01T02:56:18.245Z,100881.09
2022-09-01T02:58:46.811Z,100884.47
2022-09-01T03:01:20.521Z,100892.44
2022-09-01T03:03:51.720Z,100874.38
2022-09-01T03:06:24.037Z,100829.06
2022-09-01T03:08:53.137Z,100877.28
2022-09-01T03:11:19.829Z,100878.28
2022-09-01T03:13:47.145Z,100833.03
2022-09-01T03:16:13.956Z,100853.16
2022-09-01T03:18:42.954Z,100829.91
2022-09-01T03:21:16.181Z,100871.25
2022-09-01T03:23:45.462Z,100864.56
2022-09-01T03:26:14.525Z,100799.72
2022-09-01T03:28:41.327Z,100853.78
2022-09-01T03:31:09.002Z,100816.34
2022-09-01T03:33:37.012Z,100735.78
2022-09-01T03:36:05.443Z,100756.13
2022-09-01T03:38:44.331Z,100859.22
2022-09-01T03:41:13.330Z,100772.13
2022-09-01T03:43:45.978Z,100788.06
2022-09-01T03:46:22.045Z,100841.06
2022-09-01T03:48:55.299Z,100737.78
2022-09-01T03:51:23.431Z,100853.34
2022-09-01T03:53:54.943Z,100850.38
2022-09-01T03:56:26.201Z,100859.22
2022-09-01T03:58:56.277Z,100844.78
2022-09-01T04:01:24.830Z,100855.22
2022-09-01T04:03:52.235Z,100864.53
2022-09-01T04:06:19.456Z,100868.13
2022-09-01T04:08:47.292Z,100842.56
2022-09-01T04:11:19.198Z,100865.03
2022-09-01T04:13:47.404Z,100820.41
2022-09-01T04:16:38.848Z,100835.75
2022-09-01T04:19:15.991Z,100785.72
2022-09-01T04:21:44.147Z,100831.25
2022-09-01T04:24:12.243Z,100851.78
2022-09-01T04:26:40.729Z,100819.78
2022-09-01T04:29:09.205Z,100793.19
2022-09-01T04:31:38.784Z,100847.44
2022-09-01T04:34:13.455Z,100789.69
2022-09-01T04:36:43.601Z,100842.69
2022-09-01T04:39:12.409Z,100841.03
2022-09-01T04:41:42.683Z,100827.91
2022-09-01T04:44:09.925Z,100809.19
2022-09-01T04:46:42.335Z,100755.41
2022-09-01T04:49:13.252Z,100838.13
2022-09-01T04:51:51.188Z,100831.47
2022-09-01T04:54:20.995Z,100825.25
2022-09-01T04:56:50.851Z,100845.25
2022-09-01T04:59:20.671Z,100795.13
2022-09-01T05:01:50.743Z,100831.44
2022-09-01T05:04:23.981Z,100834.81
2022-09-01T05:06:56.075Z,100831.47
2022-09-01T05:09:25.299Z,100834.44
2022-09-01T05:11:53.029Z,100833.56
2022-09-01T05:14:22.523Z,100816.31
2022-09-01T05:16:51.002Z,100840.22
2022-09-01T05:19:20.893Z,100804.66
2022-09-01T05:21:48.669Z,100764.16
2022-09-01T05:24:21.831Z,100833.56
2022-09-01T05:26:50.714Z,100833.19
2022-09-01T05:29:18.036Z,100854.78
2022-09-01T05:31:49.596Z,100856.66
2022-09-01T05:34:26.498Z,100858.47
2022-09-01T05:36:58.172Z,100855.19
2022-09-01T05:39:26.177Z,100844.13
2022-09-01T05:41:54.075Z,100814.38
2022-09-01T05:44:24.952Z,100764.16
2022-09-01T05:46:53.294Z,100872.25
2022-09-01T05:49:20.058Z,100844.19
2022-09-01T05:51:50.509Z,100867.28
2022-09-01T05:54:23.383Z,100877.88
2022-09-01T05:56:53.218Z,100881.59
2022-09-01T05:59:25.553Z,100879.31
2022-09-01T06:01:53.970Z,100792.50
2022-09-01T06:04:21.145Z,100875.19
2022-09-01T06:07:05.890Z,100871.88
2022-09-01T06:09:40.682Z,100892.03
2022-09-01T06:12:09.267Z,100903.69
2022-09-01T06:14:36.035Z,100895.56
2022-09-01T06:17:05.870Z,100900.56
2022-09-01T06:19:36.860Z,100911.41
2022-09-01T06:22:04.594Z,100860.72
2022-09-01T06:24:31.231Z,100900.16
2022-09-01T06:26:58.759Z,100915.38
2022-09-01T06:29:25.474Z,100916.38
2022-09-01T06:31:52.891Z,100905.16
2022-09-01T06:34:19.942Z,100870.75
2022-09-01T06:36:49.640Z,100898.06
2022-09-01T06:39:20.130Z,100713.06
2022-09-01T06:41:53.213Z,100896.81
2022-09-01T06:44:24.706Z,100879.97
2022-09-01T06:46:53.110Z,100908.66
2022-09-01T06:49:21.631Z,100879.75
2022-09-01T06:51:51.845Z,100814.50
2022-09-01T06:54:21.048Z,100868.31
2022-09-01T06:56:51.820Z,100933.84
2022-09-01T06:59:20.917Z,100925.91
2022-09-01T07:01:49.927Z,100910.38
2022-09-01T07:04:21.383Z,100923.22
2022-09-01T07:07:00.226Z,100931.72
2022-09-01T07:09:47.324Z,100915.66
2022-09-01T07:12:27.602Z,100926.03
2022-09-01T07:17:43.210Z,100932.84
2022-09-01T07:20:27.251Z,100923.66
2022-09-01T07:23:06.466Z,100939.06
2022-09-01T07:26:00.936Z,100935.06
2022-09-01T07:28:37.689Z,100937.78
2022-09-01T07:33:55.614Z,100870.78
2022-09-01T07:45:26.888Z,100915.78
2022-09-01T07:47:54.794Z,100938.47
2022-09-01T07:50:39.916Z,100947.56
2022-09-01T07:53:15.448Z,100901.16
2022-09-01T07:55:44.009Z,100938.16
2022-09-01T07:58:12.315Z,100904.25
2022-09-01T08:00:46.255Z,100809.84
2022-09-01T08:03:18.901Z,100921.19
2022-09-01T08:05:55.994Z,100932.75
2022-09-01T08:08:26.403Z,100841.16
2022-09-01T08:11:04.243Z,100860.97
2022-09-01T08:13:34.665Z,100809.41
2022-09-01T08:16:07.705Z,100935.03
2022-09-01T08:18:50.789Z,100897.69
2022-09-01T08:21:22.145Z,100933.78
2022-09-01T08:23:49.523Z,100939.66
2022-09-01T08:26:18.861Z,100944.41
2022-09-01T08:28:46.427Z,100948.75
2022-09-01T08:31:19.740Z,100878.53
2022-09-01T08:33:49.632Z,100957.97
2022-09-01T08:36:21.582Z,100967.19
2022-09-01T08:38:51.246Z,100905.06
2022-09-01T08:41:35.494Z,100960.50
2022-09-01T08:44:31.590Z,100956.44
2022-09-01T08:47:05.684Z,100952.75
2022-09-01T08:49:44.340Z,100896.78
2022-09-01T08:52:22.829Z,100952.16
2022-09-01T08:54:58.000Z,100932.84
2022-09-01T08:57:32.133Z,100908.28
2022-09-01T08:59:59.307Z,100860.28
2022-09-01T09:02:26.138Z,100977.13
2022-09-01T09:05:15.821Z,100964.19
2022-09-01T09:08:06.862Z,100984.59
2022-09-01T09:10:37.316Z,101001.09
2022-09-01T09:13:26.674Z,100998.88
2022-09-01T09:16:08.965Z,100970.25
2022-09-01T09:18:54.719Z,100789.41
2022-09-01T09:21:43.740Z,100993.09
2022-09-01T09:24:17.024Z,100936.09
2022-09-01T09:26:58.932Z,100762.41
2022-09-01T09:29:29.914Z,100985.66
2022-09-01T09:32:39.390Z,100960.28
2022-09-01T09:34:56.163Z,100962.88
2022-09-01T09:37:28.918Z,100982.44
2022-09-01T09:40:04.777Z,100983.69
2022-09-01T09:42:35.138Z,100948.16
2022-09-01T09:45:04.375Z,100974.94
2022-09-01T09:47:46.670Z,101002.34
2022-09-01T09:50:32.973Z,101010.69
2022-09-01T09:53:28.620Z,100876.41
2022-09-01T09:56:19.579Z,100945.97
2022-09-01T09:58:48.927Z,100995.03
2022-09-01T10:01:26.081Z,100990.88
2022-09-01T10:03:56.806Z,100946.31
2022-09-01T10:06:38.310Z,100933.06
2022-09-01T10:09:28.047Z,100995.03
2022-09-01T10:11:57.464Z,100956.09
2022-09-01T10:14:47.973Z,100932.16
2022-09-01T10:17:20.677Z,100985.75
2022-09-01T10:19:56.248Z,100987.03
2022-09-01T10:22:24.075Z,100979.09
2022-09-01T10:24:50.942Z,100979.16
2022-09-01T10:27:25.627Z,100969.78
2022-09-01T10:30:20.543Z,100983.78
2022-09-01T10:32:55.357Z,100979.84
2022-09-01T10:35:38.777Z,100979.59
2022-09-01T10:38:11.982Z,100847.38
2022-09-01T10:40:50.038Z,100983.41
2022-09-01T10:43:45.321Z,100997.53
2022-09-01T10:46:38.789Z,100993.72
2022-09-01T10:49:27.808Z,100990.41
2022-09-01T10:52:03.169Z,100933.16
2022-09-01T10:54:45.227Z,100831.50
2022-09-01T10:57:55.815Z,100986.75
2022-09-01T11:00:36.900Z,100986.88
2022-09-01T11:03:31.783Z,100991.88
2022-09-01T11:06:17.740Z,100974.19
2022-09-01T11:09:00.997Z,100877.72
2022-09-01T11:11:45.811Z,100981.41
2022-09-01T11:14:26.962Z,100945.56
2022-09-01T11:17:17.301Z,100963.63
2022-09-01T11:19:46.746Z,100966.00
2022-09-01T11:22:19.349Z,100917.69
2022-09-01T11:25:12.036Z,100952.09
2022-09-01T11:27:48.740Z,100924.66
2022-09-01T11:30:21.578Z,100987.19
2022-09-01T11:32:52.908Z,100950.34
2022-09-01T11:35:21.809Z,100974.00
2022-09-01T11:37:50.135Z,100970.03
2022-09-01T11:40:46.089Z,100972.53
2022-09-01T11:43:16.904Z,100980.09
2022-09-01T11:46:21.898Z,100983.25
2022-09-01T11:48:51.805Z,100955.00
2022-09-01T11:51:19.297Z,100973.53
2022-09-01T11:53:46.913Z,100978.38
2022-09-01T11:56:20.375Z,100939.47
2022-09-01T11:58:47.772Z,100954.47
2022-09-01T12:01:31.183Z,100921.06
2022-09-01T12:04:19.694Z,100987.88
2022-09-01T12:06:59.426Z,100954.94
2022-09-01T12:09:48.050Z,100988.78
2022-09-01T12:12:38.237Z,100982.75
2022-09-01T12:15:25.232Z,100982.13
2022-09-01T12:17:53.483Z,100936.22
2022-09-01T12:20:37.915Z,100977.44
2022-09-01T12:23:17.843Z,100980.06
2022-09-01T12:25:45.580Z,100976.09
2022-09-01T12:28:12.703Z,100907.97
2022-09-01T12:30:41.542Z,100940.13
2022-09-01T12:33:27.508Z,100970.88
2022-09-01T12:36:21.869Z,100965.44
2022-09-01T12:38:48.849Z,100969.13
2022-09-01T12:41:39.094Z,100975.88
2022-09-01T12:44:30.039Z,100974.31
2022-09-01T12:46:59.982Z,100969.72
2022-09-01T12:49:35.973Z,100948.06
2022-09-01T12:52:25.953Z,100968.06
2022-09-01T12:55:08.834Z,100912.53
2022-09-01T12:57:51.652Z,100954.91
2022-09-01T13:00:20.543Z,100878.97
2022-09-01T13:03:02.949Z,100959.19
2022-09-01T13:05:41.884Z,100947.00
2022-09-01T13:08:12.399Z,100952.53
2022-09-01T13:10:43.225Z,100962.50
2022-09-01T13:13:11.324Z,100946.94
2022-09-01T13:15:40.404Z,100944.81
2022-09-01T13:18:07.011Z,100961.88
2022-09-01T13:20:35.477Z,100960.97
2022-09-01T13:23:02.475Z,100863.09
2022-09-01T13:25:29.109Z,100965.84
2022-09-01T13:27:55.976Z,100961.28
2022-09-01T13:30:28.424Z,100957.34
2022-09-01T13:35:45.421Z,100962.69
2022-09-01T13:38:16.198Z,100960.25
2022-09-01T13:40:43.875Z,100908.84
2022-09-01T13:43:11.846Z,100922.81
2022-09-01T13:45:40.815Z,100933.22
2022-09-01T13:48:16.858Z,100912.28
2022-09-01T13:53:39.258Z,100938.66
2022-09-01T13:56:06.203Z,100944.47
2022-09-01T13:58:32.838Z,100936.41
2022-09-01T14:00:59.959Z,100942.44
2022-09-01T14:03:26.886Z,100925.53
2022-09-01T14:05:54.082Z,100889.13
2022-09-01T14:08:22.889Z,100938.34
2022-09-01T14:10:52.235Z,100924.31
2022-09-01T14:13:35.608Z,100959.28
2022-09-01T14:16:02.818Z,100942.09
2022-09-01T14:18:33.009Z,100953.47
2022-09-01T14:21:01.361Z,100934.22
2022-09-01T14:23:30.565Z,100941.91
2022-09-01T14:25:58.834Z,100895.09
2022-09-01T14:28:25.696Z,100919.75
2022-09-01T14:33:18.873Z,100856.94
2022-09-01T14:35:47.601Z,100954.25
2022-09-01T14:38:16.253Z,100925.06
2022-09-01T14:40:46.631Z,100871.50
2022-09-01T14:43:14.397Z,100926.03
2022-09-01T14:45:47.104Z,100958.13
2022-09-01T14:48:16.906Z,100887.94
2022-09-01T14:50:47.304Z,100939.19
2022-09-01T14:53:13.935Z,100949.84
2022-09-01T14:55:44.152Z,100948.97
2022-09-01T14:58:11.030Z,100951.13
2022-09-01T15:00:39.242Z,100907.38
2022-09-01T15:03:05.973Z,100956.22
2022-09-01T15:05:39.990Z,100957.03
2022-09-01T15:08:08.668Z,100955.13
2022-09-01T15:10:36.693Z,100924.53
2022-09-01T15:13:04.220Z,100901.66
2022-09-01T15:15:31.704Z,100966.38
2022-09-01T15:18:00.106Z,100943.69
2022-09-01T15:20:46.599Z,100929.59
2022-09-01T15:23:20.224Z,100884.53
2022-09-01T15:25:48.199Z,100826.69
2022-09-01T15:28:15.194Z,100910.94
2022-09-01T15:30:45.587Z,100875.50
2022-09-01T15:33:15.780Z,100789.81
2022-09-01T15:35:44.064Z,100976.31
2022-09-01T15:38:10.852Z,100983.03
2022-09-01T15:40:43.528Z,100986.94
2022-09-01T15:43:11.612Z,100954.72
2022-09-01T15:45:39.204Z,100981.50
2022-09-01T15:48:06.754Z,100979.84
2022-09-01T15:50:33.414Z,100981.75
2022-09-01T15:53:03.637Z,100976.69
2022-09-01T15:55:40.916Z,100957.22
2022-09-01T15:58:09.647Z,100979.88
2022-09-01T16:00:36.360Z,100977.13
2022-09-01T16:03:05.535Z,100994.50
2022-09-01T16:05:35.202Z,100962.41
2022-09-01T16:08:03.138Z,100958.59
2022-09-01T16:10:36.552Z,100986.34
2022-09-01T16:13:07.416Z,100898.75
2022-09-01T16:15:35.514Z,100956.22
2022-09-01T16:18:14.408Z,100916.38
2022-09-01T16:20:59.514Z,100988.41
2022-09-01T16:23:39.262Z,100983.00
2022-09-01T16:26:05.962Z,100943.31
2022-09-01T16:28:36.017Z,100982.41
2022-09-01T16:31:16.329Z,100984.84
2022-09-01T16:33:51.727Z,100959.63
2022-09-01T16:37:00.252Z,100993.00
2022-09-01T16:39:50.862Z,100994.81
2022-09-01T16:42:29.362Z,100994.06
2022-09-01T16:45:04.918Z,100990.31
2022-09-01T16:47:46.733Z,100987.94
2022-09-01T16:50:57.233Z,100991.44
2022-09-01T16:53:49.317Z,100977.00
2022-09-01T16:56:33.123Z,100995.66
2022-09-01T16:59:06.590Z,101001.41
2022-09-01T17:01:52.448Z,100990.28
2022-09-01T17:04:37.451Z,101011.03
2022-09-01T17:07:41.721Z,101012.47
2022-09-01T17:10:33.647Z,101010.81
2022-09-01T17:13:20.013Z,101008.69
2022-09-01T17:15:55.517Z,101022.56
2022-09-01T17:18:33.372Z,100916.00
2022-09-01T17:21:32.476Z,101020.81
2022-09-01T17:24:12.532Z,101023.72
2022-09-01T17:26:41.360Z,101021.19
2022-09-01T17:29:24.915Z,100871.38
2022-09-01T17:31:59.970Z,100982.94
2022-09-01T17:34:41.749Z,101024.19
2022-09-01T17:37:33.067Z,101026.91
2022-09-01T17:40:13.612Z,101029.06
2022-09-01T17:42:45.431Z,101029.50
2022-09-01T17:45:25.103Z,101038.03
2022-09-01T17:47:57.809Z,101047.25
2022-09-01T17:50:51.271Z,101042.47
2022-09-01T17:53:27.048Z,100878.47
2022-09-01T17:56:03.717Z,101049.38
2022-09-01T17:58:58.468Z,101048.59
2022-09-01T18:01:51.394Z,101049.03
2022-09-01T18:04:24.185Z,101071.09
2022-09-01T18:07:12.123Z,101072.16
2022-09-01T18:09:51.282Z,101063.50
2022-09-01T18:12:24.956Z,100976.78
2022-09-01T18:15:11.692Z,101089.94
2022-09-01T18:17:50.818Z,101091.63
2022-09-01T18:20:26.067Z,101053.97
2022-09-01T18:23:01.585Z,101096.31
2022-09-01T18:25:36.380Z,100881.59
2022-09-01T18:28:03.066Z,101056.34
2022-09-01T18:30:53.398Z,101091.56
2022-09-01T18:33:33.344Z,101045.97
2022-09-01T18:36:24.680Z,101118.06
2022-09-01T18:39:25.964Z,101108.09
2022-09-01T18:42:04.626Z,101069.19
2022-09-01T18:45:05.326Z,100974.44
2022-09-01T18:47:54.253Z,101127.69
2022-09-01T18:50:32.062Z,101128.56
2022-09-01T18:53:16.351Z,101138.09
2022-09-01T18:55:55.104Z,101137.28
2022-09-01T18:58:37.043Z,101141.47
2022-09-01T19:01:09.516Z,101146.28
2022-09-01T19:03:54.143Z,101156.09
2022-09-01T19:06:32.134Z,101149.44
2022-09-01T19:09:38.799Z,101139.47
2022-09-01T19:12:44.130Z,101151.16
2022-09-01T19:15:33.757Z,101155.50
2022-09-01T19:18:04.423Z,101151.53
2022-09-01T19:20:45.087Z,101130.72
2022-09-01T19:23:26.962Z,101102.41
2022-09-01T19:26:02.288Z,101153.44
2022-09-01T19:28:40.870Z,101155.06
2022-09-01T19:31:22.320Z,101073.63
2022-09-01T19:33:52.078Z,101163.25
2022-09-01T19:36:26.747Z,100950.13
2022-09-01T19:38:54.362Z,101168.50
2022-09-01T19:41:39.588Z,101110.34
2022-09-01T19:44:21.281Z,101143.47
2022-09-01T19:46:51.791Z,101137.63
2022-09-01T19:49:37.384Z,101179.56
2022-09-01T19:52:10.853Z,101047.81
2022-09-01T19:55:03.784Z,101153.66
2022-09-01T19:57:49.820Z,101167.84
2022-09-01T20:00:51.458Z,101134.72
2022-09-01T20:03:27.182Z,101082.81
2022-09-01T20:05:53.771Z,101179.31
2022-09-01T20:08:21.100Z,101121.78
2022-09-01T20:11:14.952Z,101163.25
2022-09-01T20:14:03.595Z,101193.28
2022-09-01T20:16:53.049Z,101196.63
2022-09-01T20:19:25.603Z,101188.06
2022-09-01T20:21:52.219Z,101181.19
2022-09-01T20:24:25.757Z,101198.28
2022-09-01T20:27:38.719Z,101175.97
2022-09-01T20:30:26.746Z,101191.22
2022-09-01T20:32:53.378Z,101062.75
2022-09-01T20:35:29.272Z,101205.19
2022-09-01T20:38:02.078Z,101188.50
2022-09-01T20:40:38.557Z,101212.88
2022-09-01T20:43:20.313Z,101211.41
2022-09-01T20:45:46.996Z,101199.09
2022-09-01T20:48:16.832Z,101209.94
2022-09-01T20:50:43.643Z,101217.66
2022-09-01T20:53:22.240Z,101215.78
2022-09-01T20:55:57.706Z,101218.06
2022-09-01T20:58:57.305Z,101219.94
2022-09-01T21:01:44.447Z,101225.38
2022-09-01T21:04:34.612Z,101195.34
2022-09-01T21:07:08.446Z,101221.22
2022-09-01T21:09:40.789Z,101193.69
2022-09-01T21:12:13.514Z,101046.00
2022-09-01T21:15:05.842Z,101218.28
2022-09-01T21:17:57.999Z,101217.84
2022-09-01T21:20:43.275Z,101233.69
2022-09-01T21:23:10.226Z,101236.19
2022-09-01T21:25:36.831Z,101230.78
2022-09-01T21:28:06.686Z,101235.34
2022-09-01T21:30:35.721Z,101217.22
2022-09-01T21:33:03.093Z,101125.19
2022-09-01T21:35:30.076Z,101219.94
2022-09-01T21:37:56.968Z,101168.19
2022-09-01T21:40:25.448Z,101199.06
2022-09-01T21:42:59.808Z,101222.84
2022-09-01T21:45:27.002Z,101204.06
2022-09-01T21:47:54.451Z,101124.34
2022-09-01T21:50:24.502Z,101172.34
2022-09-01T21:52:51.851Z,101228.22
2022-09-01T21:55:22.688Z,101230.31
2022-09-01T21:57:50.177Z,101217.72
2022-09-01T22:00:21.014Z,101229.88
2022-09-01T22:02:48.074Z,101239.66
2022-09-01T22:05:18.352Z,101201.06
2022-09-01T22:07:46.854Z,101227.19
2022-09-01T22:10:16.939Z,101221.75
2022-09-01T22:12:46.156Z,101230.50
2022-09-01T22:15:15.296Z,101243.59
2022-09-01T22:17:42.024Z,101247.34
2022-09-01T22:20:10.997Z,101241.03
2022-09-01T22:22:37.671Z,101248.53
2022-09-01T22:25:07.528Z,101025.84
2022-09-01T22:27:34.426Z,101254.78
2022-09-01T22:30:02.222Z,101174.44
2022-09-01T22:32:32.974Z,101247.69
2022-09-01T22:35:01.558Z,101225.56
2022-09-01T22:37:28.161Z,101218.84
2022-09-01T22:39:54.856Z,101250.97
2022-09-01T22:42:21.577Z,101256.97
2022-09-01T22:44:48.338Z,101235.22
2022-09-01T22:47:14.960Z,101086.09
2022-09-01T22:49:41.625Z,101255.88
2022-09-01T22:52:08.316Z,101240.00
2022-09-01T22:54:34.968Z,101221.00
2022-09-01T22:57:02.426Z,101243.16
2022-09-01T22:59:29.043Z,101215.38
2022-09-01T23:01:55.721Z,101200.34
2022-09-01T23:04:22.577Z,101197.53
2022-09-01T23:06:51.973Z,101260.59
2022-09-01T23:09:19.942Z,101187.66
2022-09-01T23:11:47.914Z,101236.13
2022-09-01T23:14:14.852Z,101248.41
2022-09-01T23:16:42.040Z,101251.13
2022-09-01T23:19:08.760Z,101112.44
2022-09-01T23:21:37.481Z,101246.13
2022-09-01T23:24:05.318Z,101229.34
2022-09-01T23:26:32.634Z,101177.56
2022-09-01T23:28:59.832Z,101179.09
2022-09-01T23:31:30.108Z,101188.47
2022-09-01T23:33:57.770Z,101200.81
2022-09-01T23:36:26.904Z,101198.13
2022-09-01T23:38:53.610Z,101244.91
2022-09-01T23:41:32.364Z,101219.00
2022-09-01T23:44:01.583Z,101245.31
2022-09-01T23:46:34.381Z,101212.88
2022-09-01T23:49:02.181Z,101226.03
2022-09-01T23:51:29.593Z,101242.97
2022-09-01T23:53:56.363Z,101157.03
2022-09-01T23:56:25.975Z,101247.06
2022-09-01T23:58:52.849Z,101221.34
